GLO7472 SBBE-SMJP
Flight info
| Callsign | GLO7472 |
|---|---|
| Flight time | 1h 27m |
| Altitude | 38000 |
| Route | KOGVU UZ41 OTONI UG449 VILAS DCT ZY DCT |
| Aircraft | B738/M-SDFGIKLORWXY/LB1 |
Departure
| Time | 2026-04-26 02:31 |
|---|---|
| Airport | Val de Cans/Júlio Cezar Ribeiro International Airport (SBBE) |
Arrival
| Time | 2026-04-26 03:58 |
|---|---|
| Airport | Johan Adolf Pengel International Airport (SMJP) |
| Time | Latitude | Longitude | Altitude | Speed | Heading |
|---|---|---|---|---|---|
| 2026-04-26 01:53 | -1.39041 | -48.47899 | 42 ft | 0 kts | 275° |
| 2026-04-26 02:22 | -1.39042 | -48.47892 | 42 ft | 4 kts | 276° |
| 2026-04-26 02:23 | -1.39046 | -48.47866 | 42 ft | 4 kts | 285° |
| 2026-04-26 02:23 | -1.39056 | -48.47841 | 39 ft | 4 kts | 307° |
| 2026-04-26 02:23 | -1.39074 | -48.47827 | 40 ft | 3 kts | 1° |
| 2026-04-26 02:23 | -1.39077 | -48.47827 | 40 ft | 1 kts | 5° |
| 2026-04-26 02:26 | -1.39075 | -48.47827 | 40 ft | 1 kts | 5° |
| 2026-04-26 02:26 | -1.39037 | -48.47824 | 42 ft | 9 kts | 5° |
| 2026-04-26 02:26 | -1.38973 | -48.47818 | 42 ft | 9 kts | 6° |
| 2026-04-26 02:26 | -1.38910 | -48.47813 | 42 ft | 9 kts | 5° |
| 2026-04-26 02:27 | -1.38849 | -48.47808 | 40 ft | 9 kts | 5° |
| 2026-04-26 02:27 | -1.38789 | -48.47803 | 42 ft | 8 kts | 5° |
| 2026-04-26 02:27 | -1.38732 | -48.47798 | 42 ft | 8 kts | 5° |
| 2026-04-26 02:27 | -1.38688 | -48.47795 | 42 ft | 5 kts | 352° |
| 2026-04-26 02:28 | -1.38670 | -48.47825 | 42 ft | 5 kts | 279° |
| 2026-04-26 02:28 | -1.38669 | -48.47875 | 41 ft | 11 kts | 268° |
| 2026-04-26 02:28 | -1.38671 | -48.47969 | 42 ft | 14 kts | 269° |
| 2026-04-26 02:28 | -1.38673 | -48.48066 | 43 ft | 14 kts | 269° |
| 2026-04-26 02:29 | -1.38676 | -48.48159 | 43 ft | 13 kts | 268° |
| 2026-04-26 02:29 | -1.38678 | -48.48249 | 42 ft | 13 kts | 268° |
| 2026-04-26 02:29 | -1.38680 | -48.48334 | 41 ft | 9 kts | 268° |
| 2026-04-26 02:29 | -1.38667 | -48.48362 | 39 ft | 5 kts | 9° |
| 2026-04-26 02:30 | -1.38618 | -48.48314 | 41 ft | 28 kts | 45° |
| 2026-04-26 02:30 | -1.38304 | -48.47997 | 43 ft | 99 kts | 45° |
| 2026-04-26 02:30 | -1.37684 | -48.47365 | 41 ft | 157 kts | 45° |
| 2026-04-26 02:30 | -1.36851 | -48.46503 | 457 ft | 176 kts | 47° |
| 2026-04-26 02:31 | -1.35967 | -48.45653 | 1266 ft | 180 kts | 46° |
| 2026-04-26 02:31 | -1.34986 | -48.44722 | 1640 ft | 209 kts | 46° |
| 2026-04-26 02:31 | -1.33865 | -48.43650 | 1884 ft | 234 kts | 46° |
| 2026-04-26 02:31 | -1.32590 | -48.42553 | 2184 ft | 256 kts | 30° |
| 2026-04-26 02:32 | -1.30799 | -48.42236 | 2717 ft | 272 kts | 351° |
| 2026-04-26 02:32 | -1.29103 | -48.43050 | 3538 ft | 277 kts | 316° |
| 2026-04-26 02:32 | -1.27977 | -48.44606 | 4415 ft | 279 kts | 298° |
| 2026-04-26 02:32 | -1.27109 | -48.46359 | 5189 ft | 284 kts | 294° |
| 2026-04-26 02:33 | -1.26297 | -48.48173 | 5975 ft | 288 kts | 293° |
| 2026-04-26 02:33 | -1.25485 | -48.50018 | 6746 ft | 291 kts | 294° |
| 2026-04-26 02:33 | -1.24674 | -48.51847 | 7536 ft | 292 kts | 294° |
| 2026-04-26 02:33 | -1.23835 | -48.53718 | 8304 ft | 295 kts | 294° |
| 2026-04-26 02:34 | -1.22984 | -48.55597 | 9083 ft | 298 kts | 295° |
| 2026-04-26 02:34 | -1.22119 | -48.57489 | 9847 ft | 301 kts | 295° |
| 2026-04-26 02:34 | -1.21235 | -48.59415 | 10405 ft | 312 kts | 295° |
| 2026-04-26 02:34 | -1.20292 | -48.61457 | 10578 ft | 335 kts | 295° |
| 2026-04-26 02:35 | -1.19299 | -48.63601 | 11078 ft | 343 kts | 296° |
| 2026-04-26 02:35 | -1.18292 | -48.65773 | 11788 ft | 344 kts | 295° |
| 2026-04-26 02:35 | -1.17285 | -48.67945 | 12577 ft | 344 kts | 296° |
| 2026-04-26 02:35 | -1.16286 | -48.70096 | 13258 ft | 347 kts | 296° |
| 2026-04-26 02:36 | -1.15266 | -48.72290 | 13896 ft | 350 kts | 296° |
| 2026-04-26 02:36 | -1.14234 | -48.74511 | 14445 ft | 355 kts | 296° |
| 2026-04-26 02:36 | -1.13186 | -48.76765 | 14960 ft | 359 kts | 296° |
| 2026-04-26 02:36 | -1.12127 | -48.79042 | 15537 ft | 362 kts | 296° |
| 2026-04-26 02:37 | -1.11059 | -48.81339 | 16122 ft | 366 kts | 296° |
| 2026-04-26 02:37 | -1.09982 | -48.83653 | 16679 ft | 369 kts | 297° |
| 2026-04-26 02:37 | -1.08895 | -48.85989 | 17221 ft | 373 kts | 297° |
| 2026-04-26 02:37 | -1.07798 | -48.88348 | 17766 ft | 376 kts | 297° |
| 2026-04-26 02:38 | -1.06687 | -48.90737 | 18292 ft | 380 kts | 297° |
| 2026-04-26 02:38 | -1.05579 | -48.93117 | 18735 ft | 384 kts | 297° |
| 2026-04-26 02:38 | -1.04448 | -48.95549 | 19186 ft | 387 kts | 297° |
| 2026-04-26 02:38 | -1.03309 | -48.97998 | 19636 ft | 391 kts | 297° |
| 2026-04-26 02:39 | -1.02201 | -49.00380 | 20068 ft | 394 kts | 297° |
| 2026-04-26 02:39 | -1.01039 | -49.02877 | 20502 ft | 398 kts | 297° |
| 2026-04-26 02:39 | -0.99870 | -49.05391 | 20929 ft | 401 kts | 297° |
| 2026-04-26 02:39 | -0.98689 | -49.07931 | 21380 ft | 405 kts | 297° |
| 2026-04-26 02:40 | -0.97496 | -49.10496 | 21826 ft | 407 kts | 297° |
| 2026-04-26 02:40 | -0.96704 | -49.12198 | 22119 ft | 409 kts | 297° |
| 2026-04-26 02:40 | -0.95500 | -49.14787 | 22540 ft | 413 kts | 297° |
| 2026-04-26 02:40 | -0.94282 | -49.17404 | 22951 ft | 416 kts | 297° |
| 2026-04-26 02:41 | -0.93058 | -49.20036 | 23356 ft | 420 kts | 297° |
| 2026-04-26 02:41 | -0.91821 | -49.22693 | 23714 ft | 423 kts | 296° |
| 2026-04-26 02:41 | -0.90577 | -49.25367 | 24050 ft | 426 kts | 296° |
| 2026-04-26 02:41 | -0.89326 | -49.28058 | 24401 ft | 428 kts | 296° |
| 2026-04-26 02:42 | -0.88067 | -49.30764 | 24743 ft | 431 kts | 296° |
| 2026-04-26 02:42 | -0.86798 | -49.33489 | 25102 ft | 432 kts | 296° |
| 2026-04-26 02:42 | -0.85542 | -49.36189 | 25458 ft | 434 kts | 296° |
| 2026-04-26 02:42 | -0.84265 | -49.38934 | 25777 ft | 437 kts | 296° |
| 2026-04-26 02:43 | -0.81681 | -49.44487 | 26383 ft | 443 kts | 296° |
| 2026-04-26 02:43 | -0.80374 | -49.47297 | 26696 ft | 446 kts | 297° |
| 2026-04-26 02:43 | -0.79064 | -49.50112 | 27014 ft | 449 kts | 297° |
| 2026-04-26 02:44 | -0.77745 | -49.52946 | 27302 ft | 451 kts | 297° |
| 2026-04-26 02:44 | -0.76416 | -49.55801 | 27601 ft | 454 kts | 297° |
| 2026-04-26 02:44 | -0.75084 | -49.58664 | 27889 ft | 456 kts | 297° |
| 2026-04-26 02:44 | -0.73737 | -49.61559 | 28176 ft | 459 kts | 297° |
| 2026-04-26 02:45 | -0.72387 | -49.64461 | 28452 ft | 462 kts | 297° |
| 2026-04-26 02:45 | -0.71028 | -49.67380 | 28730 ft | 464 kts | 297° |
| 2026-04-26 02:45 | -0.69662 | -49.70317 | 28986 ft | 467 kts | 297° |
| 2026-04-26 02:45 | -0.68307 | -49.73230 | 29252 ft | 469 kts | 297° |
| 2026-04-26 02:46 | -0.66927 | -49.76195 | 29530 ft | 472 kts | 297° |
| 2026-04-26 02:46 | -0.65540 | -49.79173 | 29807 ft | 473 kts | 297° |
| 2026-04-26 02:46 | -0.63931 | -49.82048 | 30032 ft | 473 kts | 307° |
| 2026-04-26 02:46 | -0.61905 | -49.84629 | 30248 ft | 472 kts | 315° |
| 2026-04-26 02:47 | -0.59521 | -49.86873 | 30477 ft | 469 kts | 323° |
| 2026-04-26 02:47 | -0.56986 | -49.88927 | 30733 ft | 470 kts | 324° |
| 2026-04-26 02:47 | -0.54422 | -49.90964 | 30970 ft | 471 kts | 324° |
| 2026-04-26 02:47 | -0.51846 | -49.93008 | 31172 ft | 473 kts | 324° |
| 2026-04-26 02:48 | -0.49268 | -49.95065 | 31366 ft | 476 kts | 324° |
| 2026-04-26 02:48 | -0.46687 | -49.97140 | 31575 ft | 477 kts | 324° |
| 2026-04-26 02:48 | -0.44104 | -49.99231 | 31788 ft | 479 kts | 323° |
| 2026-04-26 02:48 | -0.41599 | -50.01266 | 31985 ft | 480 kts | 323° |
| 2026-04-26 02:49 | -0.39002 | -50.03380 | 32177 ft | 482 kts | 323° |
| 2026-04-26 02:49 | -0.36397 | -50.05503 | 32361 ft | 484 kts | 323° |
| 2026-04-26 02:49 | -0.33784 | -50.07632 | 32559 ft | 486 kts | 323° |
| 2026-04-26 02:49 | -0.31171 | -50.09762 | 32835 ft | 485 kts | 323° |
| 2026-04-26 02:50 | -0.28584 | -50.11869 | 33138 ft | 484 kts | 323° |
| 2026-04-26 02:50 | -0.25973 | -50.13996 | 33429 ft | 483 kts | 323° |
| 2026-04-26 02:50 | -0.23370 | -50.16115 | 33688 ft | 483 kts | 323° |
| 2026-04-26 02:50 | -0.20761 | -50.18240 | 33932 ft | 484 kts | 323° |
| 2026-04-26 02:51 | -0.18154 | -50.20361 | 34162 ft | 483 kts | 323° |
| 2026-04-26 02:51 | -0.15550 | -50.22481 | 34420 ft | 482 kts | 323° |
| 2026-04-26 02:51 | -0.12955 | -50.24594 | 34669 ft | 481 kts | 323° |
| 2026-04-26 02:51 | -0.10357 | -50.26709 | 34892 ft | 481 kts | 323° |
| 2026-04-26 02:52 | -0.07766 | -50.28818 | 35108 ft | 481 kts | 323° |
| 2026-04-26 02:52 | -0.05172 | -50.30929 | 35338 ft | 480 kts | 323° |
| 2026-04-26 02:52 | -0.02584 | -50.33036 | 35570 ft | 479 kts | 323° |
| 2026-04-26 02:52 | 0.00007 | -50.35146 | 35774 ft | 479 kts | 323° |
| 2026-04-26 02:53 | 0.02596 | -50.37253 | 35884 ft | 482 kts | 322° |
| 2026-04-26 02:53 | 0.05164 | -50.39343 | 36036 ft | 482 kts | 322° |
| 2026-04-26 02:53 | 0.07763 | -50.41459 | 36285 ft | 481 kts | 322° |
| 2026-04-26 02:53 | 0.10356 | -50.43570 | 36576 ft | 478 kts | 322° |
| 2026-04-26 02:54 | 0.12929 | -50.45665 | 36846 ft | 476 kts | 322° |
| 2026-04-26 02:54 | 0.15501 | -50.47759 | 37040 ft | 476 kts | 322° |
| 2026-04-26 02:54 | 0.18068 | -50.49848 | 37198 ft | 477 kts | 322° |
| 2026-04-26 02:54 | 0.20641 | -50.51943 | 37382 ft | 476 kts | 322° |
| 2026-04-26 02:55 | 0.23205 | -50.54030 | 37596 ft | 475 kts | 322° |
| 2026-04-26 02:55 | 0.25768 | -50.56117 | 37812 ft | 474 kts | 322° |
| 2026-04-26 02:55 | 0.28320 | -50.58195 | 37964 ft | 474 kts | 322° |
| 2026-04-26 02:55 | 0.30888 | -50.60285 | 37947 ft | 477 kts | 322° |
| 2026-04-26 02:56 | 0.36060 | -50.64495 | 37964 ft | 480 kts | 322° |
| 2026-04-26 02:56 | 0.41205 | -50.68684 | 37968 ft | 480 kts | 322° |
| 2026-04-26 02:57 | 0.46386 | -50.72902 | 37968 ft | 480 kts | 322° |
| 2026-04-26 02:57 | 0.51576 | -50.77127 | 37967 ft | 480 kts | 322° |
| 2026-04-26 02:58 | 0.56762 | -50.81350 | 37966 ft | 480 kts | 322° |
| 2026-04-26 02:58 | 0.61941 | -50.85567 | 37961 ft | 480 kts | 323° |
| 2026-04-26 02:59 | 0.67086 | -50.89757 | 37969 ft | 479 kts | 323° |
| 2026-04-26 02:59 | 0.72261 | -50.93972 | 37967 ft | 479 kts | 323° |
| 2026-04-26 03:00 | 0.77435 | -50.98176 | 37967 ft | 479 kts | 323° |
| 2026-04-26 03:00 | 0.82542 | -51.02271 | 37969 ft | 479 kts | 323° |
| 2026-04-26 03:01 | 0.87740 | -51.06426 | 37975 ft | 479 kts | 323° |
| 2026-04-26 03:01 | 0.92946 | -51.10594 | 37975 ft | 479 kts | 323° |
| 2026-04-26 03:02 | 0.98122 | -51.14745 | 37971 ft | 479 kts | 323° |
| 2026-04-26 03:02 | 1.03316 | -51.18911 | 37972 ft | 479 kts | 323° |
| 2026-04-26 03:03 | 1.08504 | -51.23073 | 37970 ft | 478 kts | 323° |
| 2026-04-26 03:03 | 1.13698 | -51.27240 | 37968 ft | 479 kts | 323° |
| 2026-04-26 03:04 | 1.18891 | -51.31406 | 37974 ft | 479 kts | 323° |
| 2026-04-26 03:04 | 1.24083 | -51.35571 | 37977 ft | 478 kts | 323° |
| 2026-04-26 03:05 | 1.29283 | -51.39742 | 37975 ft | 478 kts | 323° |
| 2026-04-26 03:05 | 1.34438 | -51.43878 | 37974 ft | 478 kts | 323° |
| 2026-04-26 03:06 | 1.39627 | -51.48041 | 37977 ft | 478 kts | 323° |
| 2026-04-26 03:06 | 1.44816 | -51.52205 | 37972 ft | 478 kts | 323° |
| 2026-04-26 03:07 | 1.49999 | -51.56365 | 37973 ft | 477 kts | 323° |
| 2026-04-26 03:07 | 1.55177 | -51.60520 | 37976 ft | 477 kts | 323° |
| 2026-04-26 03:08 | 1.60356 | -51.64676 | 37978 ft | 477 kts | 323° |
| 2026-04-26 03:08 | 1.65528 | -51.68828 | 37979 ft | 477 kts | 323° |
| 2026-04-26 03:09 | 1.70667 | -51.72953 | 37977 ft | 476 kts | 323° |
| 2026-04-26 03:09 | 1.75841 | -51.77106 | 37979 ft | 476 kts | 323° |
| 2026-04-26 03:10 | 1.81024 | -51.81267 | 37978 ft | 476 kts | 323° |
| 2026-04-26 03:10 | 1.86166 | -51.85395 | 37977 ft | 476 kts | 323° |
| 2026-04-26 03:11 | 1.91337 | -51.89547 | 37979 ft | 477 kts | 323° |
| 2026-04-26 03:11 | 1.96517 | -51.93706 | 37976 ft | 477 kts | 323° |
| 2026-04-26 03:12 | 2.01695 | -51.97864 | 37976 ft | 477 kts | 323° |
| 2026-04-26 03:12 | 2.06744 | -52.01919 | 37978 ft | 477 kts | 323° |
| 2026-04-26 03:13 | 2.11923 | -52.06079 | 37976 ft | 477 kts | 323° |
| 2026-04-26 03:13 | 2.17110 | -52.10245 | 37976 ft | 478 kts | 323° |
| 2026-04-26 03:14 | 2.22305 | -52.14419 | 37977 ft | 478 kts | 323° |
| 2026-04-26 03:14 | 2.27485 | -52.18580 | 37972 ft | 478 kts | 323° |
| 2026-04-26 03:15 | 2.32630 | -52.22714 | 37977 ft | 478 kts | 323° |
| 2026-04-26 03:15 | 2.37815 | -52.26881 | 37977 ft | 477 kts | 323° |
| 2026-04-26 03:16 | 2.42991 | -52.31040 | 37970 ft | 477 kts | 323° |
| 2026-04-26 03:16 | 2.48167 | -52.35201 | 37974 ft | 477 kts | 323° |
| 2026-04-26 03:17 | 2.53337 | -52.39357 | 37987 ft | 477 kts | 323° |
| 2026-04-26 03:17 | 2.58516 | -52.43522 | 37974 ft | 477 kts | 323° |
| 2026-04-26 03:18 | 2.63685 | -52.47678 | 37977 ft | 477 kts | 323° |
| 2026-04-26 03:18 | 2.68764 | -52.51971 | 37977 ft | 478 kts | 319° |
| 2026-04-26 03:19 | 2.73528 | -52.56564 | 37964 ft | 479 kts | 317° |
| 2026-04-26 03:19 | 2.78293 | -52.61233 | 37973 ft | 479 kts | 317° |
| 2026-04-26 03:20 | 2.83082 | -52.65885 | 37972 ft | 479 kts | 317° |
| 2026-04-26 03:20 | 2.87881 | -52.70514 | 37972 ft | 479 kts | 318° |
| 2026-04-26 03:21 | 2.92691 | -52.75145 | 37974 ft | 480 kts | 318° |
| 2026-04-26 03:21 | 2.97502 | -52.79779 | 37976 ft | 480 kts | 318° |
| 2026-04-26 03:22 | 3.02279 | -52.84382 | 37977 ft | 480 kts | 318° |
| 2026-04-26 03:22 | 3.07093 | -52.89022 | 37973 ft | 480 kts | 317° |
| 2026-04-26 03:23 | 3.11907 | -52.93663 | 37977 ft | 480 kts | 317° |
| 2026-04-26 03:23 | 3.16718 | -52.98301 | 37992 ft | 480 kts | 317° |
| 2026-04-26 03:24 | 3.21437 | -53.02852 | 37982 ft | 480 kts | 318° |
| 2026-04-26 03:24 | 3.26214 | -53.07459 | 37982 ft | 479 kts | 317° |
| 2026-04-26 03:25 | 3.31030 | -53.12105 | 37973 ft | 479 kts | 318° |
| 2026-04-26 03:25 | 3.35020 | -53.15953 | 37979 ft | 479 kts | 318° |
| 2026-04-26 03:26 | 3.39816 | -53.20580 | 37975 ft | 478 kts | 317° |
| 2026-04-26 03:26 | 3.44605 | -53.25202 | 37974 ft | 478 kts | 317° |
| 2026-04-26 03:27 | 3.49387 | -53.29817 | 37976 ft | 477 kts | 317° |
| 2026-04-26 03:27 | 3.54166 | -53.34430 | 37978 ft | 477 kts | 317° |
| 2026-04-26 03:28 | 3.58913 | -53.39013 | 37978 ft | 476 kts | 317° |
| 2026-04-26 03:28 | 3.63687 | -53.43625 | 37976 ft | 476 kts | 317° |
| 2026-04-26 03:29 | 3.68460 | -53.48233 | 37969 ft | 477 kts | 317° |
| 2026-04-26 03:29 | 3.73236 | -53.52848 | 37974 ft | 477 kts | 317° |
| 2026-04-26 03:30 | 3.78011 | -53.57464 | 37974 ft | 477 kts | 317° |
| 2026-04-26 03:30 | 3.82793 | -53.62088 | 37996 ft | 477 kts | 317° |
| 2026-04-26 03:31 | 3.87584 | -53.66722 | 37647 ft | 484 kts | 317° |
| 2026-04-26 03:31 | 3.90006 | -53.69065 | 37146 ft | 484 kts | 317° |
| 2026-04-26 03:31 | 3.92420 | -53.71405 | 36578 ft | 483 kts | 316° |
| 2026-04-26 03:32 | 3.94756 | -53.73864 | 35800 ft | 489 kts | 313° |
| 2026-04-26 03:32 | 3.96971 | -53.76398 | 35173 ft | 491 kts | 311° |
| 2026-04-26 03:32 | 3.99184 | -53.79022 | 34530 ft | 493 kts | 311° |
| 2026-04-26 03:32 | 4.01389 | -53.81656 | 33873 ft | 494 kts | 311° |
| 2026-04-26 03:33 | 4.03609 | -53.84294 | 33154 ft | 496 kts | 311° |
| 2026-04-26 03:33 | 4.05844 | -53.86926 | 32476 ft | 496 kts | 312° |
| 2026-04-26 03:33 | 4.08080 | -53.89537 | 31989 ft | 492 kts | 312° |
| 2026-04-26 03:33 | 4.10305 | -53.92121 | 31509 ft | 488 kts | 312° |
| 2026-04-26 03:34 | 4.12521 | -53.94684 | 31035 ft | 484 kts | 313° |
| 2026-04-26 03:34 | 4.14719 | -53.97225 | 30564 ft | 481 kts | 313° |
| 2026-04-26 03:34 | 4.16907 | -53.99754 | 30082 ft | 478 kts | 312° |
| 2026-04-26 03:34 | 4.19014 | -54.02188 | 29568 ft | 475 kts | 313° |
| 2026-04-26 03:35 | 4.21170 | -54.04682 | 29053 ft | 471 kts | 313° |
| 2026-04-26 03:35 | 4.23299 | -54.07145 | 28557 ft | 466 kts | 313° |
| 2026-04-26 03:35 | 4.25389 | -54.09565 | 28087 ft | 462 kts | 313° |
| 2026-04-26 03:35 | 4.27483 | -54.11988 | 27617 ft | 458 kts | 313° |
| 2026-04-26 03:36 | 4.29560 | -54.14392 | 27147 ft | 454 kts | 313° |
| 2026-04-26 03:36 | 4.31616 | -54.16773 | 26695 ft | 450 kts | 313° |
| 2026-04-26 03:36 | 4.33658 | -54.19138 | 26236 ft | 447 kts | 312° |
| 2026-04-26 03:36 | 4.35686 | -54.21487 | 25785 ft | 443 kts | 312° |
| 2026-04-26 03:37 | 4.37695 | -54.23813 | 25332 ft | 440 kts | 312° |
| 2026-04-26 03:37 | 4.39696 | -54.26130 | 24856 ft | 438 kts | 312° |
| 2026-04-26 03:37 | 4.41687 | -54.28436 | 24398 ft | 435 kts | 312° |
| 2026-04-26 03:37 | 4.43665 | -54.30727 | 23942 ft | 433 kts | 312° |
| 2026-04-26 03:38 | 4.45633 | -54.33005 | 23486 ft | 431 kts | 312° |
| 2026-04-26 03:38 | 4.47587 | -54.35268 | 22964 ft | 428 kts | 312° |
| 2026-04-26 03:38 | 4.49527 | -54.37517 | 22496 ft | 425 kts | 312° |
| 2026-04-26 03:38 | 4.51435 | -54.39729 | 22039 ft | 421 kts | 312° |
| 2026-04-26 03:39 | 4.53366 | -54.41968 | 21584 ft | 417 kts | 312° |
| 2026-04-26 03:39 | 4.55234 | -54.44134 | 21154 ft | 414 kts | 312° |
| 2026-04-26 03:39 | 4.57112 | -54.46309 | 20725 ft | 411 kts | 312° |
| 2026-04-26 03:39 | 4.58977 | -54.48471 | 20286 ft | 408 kts | 312° |
| 2026-04-26 03:40 | 4.60829 | -54.50619 | 19854 ft | 406 kts | 312° |
| 2026-04-26 03:40 | 4.62675 | -54.52759 | 19410 ft | 404 kts | 312° |
| 2026-04-26 03:40 | 4.64509 | -54.54885 | 18966 ft | 403 kts | 312° |
| 2026-04-26 03:40 | 4.66337 | -54.57006 | 18533 ft | 401 kts | 312° |
| 2026-04-26 03:41 | 4.68160 | -54.59120 | 18078 ft | 400 kts | 312° |
| 2026-04-26 03:41 | 4.69975 | -54.61224 | 17605 ft | 397 kts | 312° |
| 2026-04-26 03:41 | 4.71776 | -54.63314 | 17178 ft | 395 kts | 312° |
| 2026-04-26 03:41 | 4.73544 | -54.65364 | 16760 ft | 392 kts | 312° |
| 2026-04-26 03:42 | 4.75316 | -54.67421 | 16340 ft | 389 kts | 312° |
| 2026-04-26 03:42 | 4.77080 | -54.69467 | 15925 ft | 386 kts | 312° |
| 2026-04-26 03:42 | 4.78831 | -54.71499 | 15514 ft | 384 kts | 312° |
| 2026-04-26 03:42 | 4.80575 | -54.73523 | 15107 ft | 382 kts | 312° |
| 2026-04-26 03:43 | 4.82304 | -54.75529 | 14684 ft | 380 kts | 312° |
| 2026-04-26 03:43 | 4.84033 | -54.77537 | 14256 ft | 378 kts | 312° |
| 2026-04-26 03:43 | 4.85749 | -54.79528 | 13853 ft | 377 kts | 312° |
| 2026-04-26 03:43 | 4.87457 | -54.81511 | 13404 ft | 375 kts | 312° |
| 2026-04-26 03:44 | 4.89157 | -54.83485 | 12980 ft | 372 kts | 312° |
| 2026-04-26 03:44 | 4.90844 | -54.85443 | 12563 ft | 370 kts | 312° |
| 2026-04-26 03:44 | 4.92519 | -54.87388 | 12172 ft | 367 kts | 313° |
| 2026-04-26 03:44 | 4.94181 | -54.89319 | 11761 ft | 364 kts | 313° |
| 2026-04-26 03:45 | 4.95831 | -54.91235 | 11379 ft | 362 kts | 313° |
| 2026-04-26 03:45 | 4.97451 | -54.93117 | 10991 ft | 360 kts | 313° |
| 2026-04-26 03:45 | 4.99083 | -54.95012 | 10602 ft | 358 kts | 313° |
| 2026-04-26 03:45 | 5.00678 | -54.96866 | 10426 ft | 349 kts | 313° |
| 2026-04-26 03:46 | 5.02248 | -54.98691 | 10251 ft | 341 kts | 313° |
| 2026-04-26 03:46 | 5.03725 | -55.00408 | 10109 ft | 333 kts | 313° |
| 2026-04-26 03:46 | 5.05218 | -55.02143 | 9951 ft | 325 kts | 313° |
| 2026-04-26 03:47 | 5.08120 | -55.05514 | 9372 ft | 320 kts | 313° |
| 2026-04-26 03:47 | 5.09579 | -55.07209 | 9006 ft | 320 kts | 313° |
| 2026-04-26 03:47 | 5.11031 | -55.08896 | 8691 ft | 318 kts | 313° |
| 2026-04-26 03:47 | 5.12474 | -55.10572 | 8375 ft | 317 kts | 313° |
| 2026-04-26 03:48 | 5.13911 | -55.12242 | 8066 ft | 316 kts | 312° |
| 2026-04-26 03:48 | 5.15346 | -55.13909 | 7752 ft | 314 kts | 312° |
| 2026-04-26 03:48 | 5.16753 | -55.15546 | 7440 ft | 306 kts | 312° |
| 2026-04-26 03:48 | 5.18126 | -55.17144 | 7141 ft | 299 kts | 312° |
| 2026-04-26 03:49 | 5.19485 | -55.18724 | 6866 ft | 298 kts | 312° |
| 2026-04-26 03:49 | 5.20841 | -55.20300 | 6568 ft | 298 kts | 312° |
| 2026-04-26 03:49 | 5.22178 | -55.21855 | 6269 ft | 298 kts | 312° |
| 2026-04-26 03:49 | 5.23550 | -55.23451 | 5959 ft | 298 kts | 312° |
| 2026-04-26 03:50 | 5.24904 | -55.25025 | 5659 ft | 298 kts | 312° |
| 2026-04-26 03:50 | 5.26239 | -55.26579 | 5365 ft | 297 kts | 312° |
| 2026-04-26 03:50 | 5.27589 | -55.28150 | 5079 ft | 296 kts | 312° |
| 2026-04-26 03:50 | 5.28931 | -55.29712 | 4796 ft | 296 kts | 312° |
| 2026-04-26 03:51 | 5.30257 | -55.31255 | 4581 ft | 286 kts | 312° |
| 2026-04-26 03:51 | 5.31541 | -55.32750 | 4462 ft | 279 kts | 313° |
| 2026-04-26 03:51 | 5.32794 | -55.34209 | 4339 ft | 272 kts | 313° |
| 2026-04-26 03:51 | 5.34017 | -55.35628 | 4220 ft | 265 kts | 314° |
| 2026-04-26 03:52 | 5.35463 | -55.36680 | 4084 ft | 251 kts | 346° |
| 2026-04-26 03:52 | 5.37128 | -55.36977 | 4000 ft | 238 kts | 2° |
| 2026-04-26 03:52 | 5.38739 | -55.36999 | 3871 ft | 227 kts | 5° |
| 2026-04-26 03:52 | 5.40308 | -55.36991 | 3637 ft | 222 kts | 5° |
| 2026-04-26 03:53 | 5.41838 | -55.36988 | 3418 ft | 217 kts | 5° |
| 2026-04-26 03:53 | 5.43301 | -55.36929 | 3186 ft | 208 kts | 18° |
| 2026-04-26 03:53 | 5.44466 | -55.36239 | 2988 ft | 188 kts | 56° |
| 2026-04-26 03:53 | 5.45063 | -55.35133 | 2837 ft | 175 kts | 76° |
| 2026-04-26 03:54 | 5.45176 | -55.33951 | 2658 ft | 167 kts | 91° |
| 2026-04-26 03:54 | 5.45189 | -55.32802 | 2496 ft | 160 kts | 90° |
| 2026-04-26 03:54 | 5.45204 | -55.31724 | 2332 ft | 146 kts | 90° |
| 2026-04-26 03:54 | 5.45213 | -55.30750 | 2146 ft | 136 kts | 91° |
| 2026-04-26 03:55 | 5.45219 | -55.29813 | 1945 ft | 133 kts | 90° |
| 2026-04-26 03:55 | 5.45224 | -55.28891 | 1781 ft | 131 kts | 89° |
| 2026-04-26 03:55 | 5.45230 | -55.27982 | 1600 ft | 131 kts | 90° |
| 2026-04-26 03:55 | 5.45236 | -55.27059 | 1431 ft | 133 kts | 90° |
| 2026-04-26 03:56 | 5.45241 | -55.26120 | 1248 ft | 136 kts | 90° |
| 2026-04-26 03:56 | 5.45246 | -55.25170 | 1081 ft | 136 kts | 90° |
| 2026-04-26 03:56 | 5.45250 | -55.24218 | 861 ft | 138 kts | 90° |
| 2026-04-26 03:56 | 5.45251 | -55.23243 | 655 ft | 145 kts | 90° |
| 2026-04-26 03:57 | 5.45254 | -55.22224 | 473 ft | 146 kts | 89° |
| 2026-04-26 03:57 | 5.45267 | -55.21202 | 263 ft | 146 kts | 89° |
| 2026-04-26 03:57 | 5.45278 | -55.20184 | 81 ft | 145 kts | 89° |
| 2026-04-26 03:57 | 5.45284 | -55.19270 | 56 ft | 108 kts | 89° |
| 2026-04-26 03:58 | 5.45288 | -55.18726 | 55 ft | 56 kts | 89° |
| 2026-04-26 03:58 | 5.45290 | -55.18371 | 58 ft | 46 kts | 89° |
| 2026-04-26 03:58 | 5.45297 | -55.18199 | 57 ft | 8 kts | 58° |
| 2026-04-26 03:58 | 5.45319 | -55.18157 | 60 ft | 7 kts | 111° |
| 2026-04-26 03:59 | 5.45282 | -55.18168 | 56 ft | 9 kts | 257° |
| 2026-04-26 03:59 | 5.45284 | -55.18252 | 58 ft | 16 kts | 272° |
| 2026-04-26 03:59 | 5.45290 | -55.18384 | 58 ft | 21 kts | 272° |
| 2026-04-26 03:59 | 5.45289 | -55.18532 | 53 ft | 21 kts | 269° |
| 2026-04-26 04:00 | 5.45288 | -55.18677 | 55 ft | 20 kts | 269° |
| 2026-04-26 04:00 | 5.45286 | -55.18816 | 56 ft | 20 kts | 269° |
| 2026-04-26 04:00 | 5.45285 | -55.18952 | 59 ft | 19 kts | 269° |
| 2026-04-26 04:00 | 5.45284 | -55.19082 | 56 ft | 18 kts | 269° |
| 2026-04-26 04:01 | 5.45283 | -55.19209 | 61 ft | 18 kts | 269° |
| 2026-04-26 04:01 | 5.45281 | -55.19333 | 58 ft | 18 kts | 269° |
| 2026-04-26 04:01 | 5.45280 | -55.19471 | 64 ft | 22 kts | 269° |
| 2026-04-26 04:01 | 5.45278 | -55.19626 | 64 ft | 22 kts | 269° |
| 2026-04-26 04:02 | 5.45280 | -55.19776 | 61 ft | 20 kts | 271° |
| 2026-04-26 04:02 | 5.45280 | -55.19908 | 59 ft | 18 kts | 270° |
| 2026-04-26 04:02 | 5.45282 | -55.20002 | 61 ft | 9 kts | 277° |
| 2026-04-26 04:02 | 5.45296 | -55.20057 | 55 ft | 8 kts | 306° |
| 2026-04-26 04:03 | 5.45349 | -55.20069 | 56 ft | 8 kts | 9° |
| 2026-04-26 04:03 | 5.45402 | -55.20053 | 54 ft | 8 kts | 20° |
| 2026-04-26 04:03 | 5.45454 | -55.20039 | 58 ft | 8 kts | 5° |
| 2026-04-26 04:03 | 5.45503 | -55.20039 | 51 ft | 4 kts | 359° |
| 2026-04-26 04:04 | 5.45523 | -55.20039 | 57 ft | 1 kts | 359° |
| 2026-04-26 04:04 | 5.45524 | -55.20039 | 57 ft | 0 kts | 359° |